Time;durP1;ratioP1;P1;durP2;ratioP2;P2;SDS_P1;SDS_P2;PMS_P1;PMS_P2;Temp;Humidity;BMP_temperature;BMP_pressure;BME280_temperature;BME280_humidity;BME280_pressure;Samples;Min_cycle;Max_cycle;Signal;HPM_P1;HPM_P2
2021/12/04 00:01:09;;;;;;;6.82;6.03;;;2.70;99.90;;;;;;5020329;28;20286;-92
2021/12/04 00:03:38;;;;;;;8.77;6.78;;;2.50;99.90;;;;;;5015605;28;20187;-94
2021/12/04 00:06:10;;;;;;;11.63;6.60;;;2.80;99.90;;;;;;5004226;28;20243;-94
2021/12/04 00:08:37;;;;;;;7.90;6.50;;;3.00;99.90;;;;;;4986512;28;20279;-94
2021/12/04 00:11:04;;;;;;;9.48;6.90;;;2.60;99.90;;;;;;4998956;28;20188;-91
2021/12/04 00:13:31;;;;;;;8.90;6.50;;;2.70;99.90;;;;;;4996806;28;20223;-92
2021/12/04 00:15:58;;;;;;;6.88;6.18;;;2.70;99.90;;;;;;5000373;28;20206;-92
2021/12/04 00:18:24;;;;;;;12.18;6.80;;;2.90;99.90;;;;;;5014181;28;20231;-92
2021/12/04 00:20:52;;;;;;;9.00;7.35;;;2.80;99.90;;;;;;5014695;28;20298;-91
2021/12/04 00:23:19;;;;;;;8.85;7.53;;;3.00;99.90;;;;;;5014378;28;20619;-92
2021/12/04 00:25:45;;;;;;;9.05;6.93;;;2.80;99.90;;;;;;4996800;28;20188;-92
2021/12/04 00:28:12;;;;;;;14.18;7.25;;;2.70;99.90;;;;;;5014335;28;20222;-91
2021/12/04 00:30:38;;;;;;;9.35;7.05;;;2.80;99.90;;;;;;5013810;28;20219;-92
2021/12/04 00:33:14;;;;;;;10.35;7.22;;;2.90;99.90;;;;;;5014259;28;20223;-91
2021/12/04 00:35:46;;;;;;;7.20;6.47;;;2.90;99.90;;;;;;4997775;28;20270;-91
2021/12/04 00:49:12;;;;;;;9.52;6.85;;;2.90;99.90;;;;;;5013721;28;20601;-91
2021/12/04 00:51:42;;;;;;;7.90;7.10;;;2.90;99.90;;;;;;5012627;28;20194;-91
2021/12/04 00:54:12;;;;;;;9.50;7.30;;;2.80;99.90;;;;;;5013408;28;20631;-90
2021/12/04 00:56:40;;;;;;;9.18;7.07;;;2.90;99.90;;;;;;5012844;28;20183;-91
2021/12/04 00:59:07;;;;;;;11.15;8.15;;;2.90;99.90;;;;;;5012768;28;20245;-89
2021/12/04 01:01:33;;;;;;;10.48;8.43;;;2.90;99.90;;;;;;5013268;28;20758;-91
2021/12/04 01:04:00;;;;;;;9.23;7.57;;;3.00;99.90;;;;;;4996815;28;20696;-92
2021/12/04 01:06:26;;;;;;;10.73;7.68;;;2.90;99.90;;;;;;5013749;28;20219;-93
2021/12/04 01:08:53;;;;;;;9.15;7.68;;;2.90;99.90;;;;;;5013448;28;20221;-94
2021/12/04 01:11:21;;;;;;;9.88;7.80;;;3.10;99.90;;;;;;5014056;28;20602;-92
2021/12/04 01:13:48;;;;;;;10.40;8.13;;;3.00;99.90;;;;;;5011746;28;20290;-92
2021/12/04 01:16:15;;;;;;;10.80;8.30;;;2.90;99.90;;;;;;5014410;28;20250;-93
2021/12/04 01:18:43;;;;;;;9.70;8.20;;;2.90;99.90;;;;;;5014054;28;20638;-93
2021/12/04 01:21:10;;;;;;;10.23;8.10;;;2.90;99.90;;;;;;5012743;28;20661;-91
2021/12/04 01:23:36;;;;;;;10.77;8.20;;;2.90;99.90;;;;;;5012796;28;20274;-91
2021/12/04 01:26:03;;;;;;;10.27;8.60;;;2.90;99.90;;;;;;5012561;28;20222;-90
2021/12/04 01:28:31;;;;;;;10.90;8.80;;;2.90;99.90;;;;;;5012627;28;20219;-91
2021/12/04 01:30:58;;;;;;;9.90;8.25;;;2.90;99.90;;;;;;5013009;28;20195;-91
2021/12/04 01:33:24;;;;;;;13.82;8.70;;;3.00;99.90;;;;;;5012256;28;20242;-92
2021/12/04 01:35:51;;;;;;;10.68;8.20;;;3.00;99.90;;;;;;5012613;28;20555;-91
2021/12/04 01:38:17;;;;;;;13.18;8.82;;;3.00;99.90;;;;;;4993101;28;20192;-90
2021/12/04 01:40:45;;;;;;;17.15;9.95;;;3.10;99.90;;;;;;4993043;28;20338;-91
2021/12/04 01:43:11;;;;;;;13.65;8.90;;;3.00;99.90;;;;;;4984066;28;20216;-91
2021/12/04 01:45:39;;;;;;;10.68;8.10;;;3.10;99.90;;;;;;4989886;28;20323;-91
2021/12/04 01:48:06;;;;;;;11.88;8.07;;;3.10;99.90;;;;;;4992188;28;20291;-90
2021/12/04 01:50:34;;;;;;;8.70;7.80;;;3.10;99.90;;;;;;4992969;28;20271;-89
2021/12/04 01:53:02;;;;;;;9.90;7.18;;;3.10;99.90;;;;;;4993369;28;20277;-89
2021/12/04 01:55:30;;;;;;;11.85;8.10;;;3.10;99.90;;;;;;4993436;28;20195;-89
2021/12/04 01:58:00;;;;;;;13.80;8.15;;;3.10;99.90;;;;;;4993640;28;20549;-89
2021/12/04 02:00:27;;;;;;;12.73;8.70;;;3.10;99.90;;;;;;4993882;28;20235;-89
2021/12/04 02:02:55;;;;;;;9.75;8.82;;;3.00;99.90;;;;;;4993078;28;20746;-90
2021/12/04 02:05:22;;;;;;;9.90;8.10;;;3.00;99.90;;;;;;4993366;28;20216;-89
2021/12/04 02:07:48;;;;;;;10.68;7.90;;;3.00;99.90;;;;;;4992806;28;20230;-89
2021/12/04 02:10:15;;;;;;;10.15;8.20;;;3.00;99.90;;;;;;4992974;28;20600;-88
2021/12/04 02:12:41;;;;;;;8.23;7.05;;;3.00;99.90;;;;;;4993236;28;20603;-89
2021/12/04 02:15:13;;;;;;;12.85;8.68;;;3.10;99.90;;;;;;4992881;28;20256;-89
2021/12/04 02:17:39;;;;;;;9.40;7.97;;;3.10;99.90;;;;;;4992841;28;20247;-90
2021/12/04 02:20:11;;;;;;;10.23;8.40;;;3.00;99.90;;;;;;4993307;28;20185;-89
2021/12/04 02:22:38;;;;;;;9.48;8.48;;;3.00;99.90;;;;;;4993252;28;20642;-89
2021/12/04 02:25:07;;;;;;;12.05;8.00;;;3.10;99.90;;;;;;4992926;28;20250;-91
2021/12/04 02:27:34;;;;;;;15.90;9.40;;;3.10;99.90;;;;;;4996116;28;20558;-90
2021/12/04 02:30:00;;;;;;;8.75;7.47;;;3.10;99.90;;;;;;4996448;28;20279;-91
2021/12/04 02:32:28;;;;;;;11.70;8.40;;;3.10;99.90;;;;;;4996517;28;20184;-90
2021/12/04 02:34:54;;;;;;;11.18;8.75;;;3.10;99.90;;;;;;4996603;28;20188;-91
2021/12/04 02:37:22;;;;;;;14.80;8.93;;;3.10;99.90;;;;;;5008814;28;20246;-91
2021/12/04 02:39:57;;;;;;;9.50;7.95;;;3.10;99.90;;;;;;5016441;28;20192;-92
2021/12/04 02:42:27;;;;;;;10.60;8.18;;;3.10;99.90;;;;;;5016533;28;20221;-91
2021/12/04 02:44:54;;;;;;;10.38;9.35;;;3.10;99.90;;;;;;5015723;28;20195;-91
2021/12/04 02:47:22;;;;;;;11.07;9.15;;;3.10;99.90;;;;;;5015488;28;20227;-90
2021/12/04 02:49:48;;;;;;;14.10;8.88;;;3.10;99.90;;;;;;5015889;28;20613;-89
2021/12/04 02:52:16;;;;;;;9.70;8.30;;;3.10;99.90;;;;;;5015937;28;20202;-89
2021/12/04 02:54:44;;;;;;;12.60;8.95;;;3.10;99.90;;;;;;5015509;28;20221;-89
2021/12/04 02:57:14;;;;;;;11.30;9.40;;;3.10;99.90;;;;;;5015554;28;20223;-88
2021/12/04 02:59:42;;;;;;;9.63;7.97;;;3.10;99.90;;;;;;5014532;28;20195;-89
2021/12/04 03:02:16;;;;;;;11.23;8.38;;;3.10;99.90;;;;;;5015116;28;20207;-89
2021/12/04 03:04:42;;;;;;;10.13;8.77;;;3.10;99.90;;;;;;5015813;28;20185;-89
2021/12/04 03:07:09;;;;;;;10.00;8.60;;;3.10;99.90;;;;;;5015439;28;20234;-89
2021/12/04 03:09:36;;;;;;;9.18;7.80;;;3.10;99.90;;;;;;5015627;28;20614;-92
2021/12/04 03:12:04;;;;;;;8.50;7.53;;;3.10;99.90;;;;;;4996659;28;20613;-92
2021/12/04 03:14:31;;;;;;;9.57;8.57;;;3.20;99.90;;;;;;5002416;28;20219;-92
2021/12/04 03:16:58;;;;;;;11.35;8.40;;;3.20;99.90;;;;;;5015189;28;20192;-92
2021/12/04 03:19:24;;;;;;;9.82;8.15;;;3.20;99.90;;;;;;5015565;28;20223;-91
2021/12/04 03:21:51;;;;;;;10.82;8.45;;;3.20;99.90;;;;;;5015651;28;20627;-92
2021/12/04 03:24:19;;;;;;;9.80;8.70;;;3.20;99.90;;;;;;5014809;28;20718;-92
2021/12/04 03:26:49;;;;;;;9.75;8.75;;;3.20;99.90;;;;;;5015184;28;20187;-91
2021/12/04 03:29:20;;;;;;;8.90;8.00;;;3.20;99.90;;;;;;5014984;28;20333;-90
2021/12/04 03:32:09;;;;;;;12.15;8.95;;;3.20;99.90;;;;;;5014970;28;20267;-90
2021/12/04 03:40:11;;;;;;;12.38;9.70;;;3.30;99.90;;;;;;4999253;28;20750;-90
2021/12/04 03:42:40;;;;;;;11.95;8.68;;;3.20;99.90;;;;;;5011130;28;20207;-89
2021/12/04 03:45:11;;;;;;;13.85;9.80;;;3.30;99.90;;;;;;5007769;28;20690;-87
2021/12/04 03:47:41;;;;;;;11.73;8.13;;;3.30;99.90;;;;;;5014682;28;20247;-89
2021/12/04 03:50:08;;;;;;;12.05;9.43;;;3.30;99.90;;;;;;5014624;28;20183;-89
2021/12/04 03:52:36;;;;;;;13.18;9.32;;;3.30;99.90;;;;;;5015076;28;20241;-90
2021/12/04 03:55:04;;;;;;;12.27;9.48;;;3.30;99.90;;;;;;5014223;28;20187;-88
2021/12/04 03:57:31;;;;;;;11.15;8.55;;;3.30;99.90;;;;;;5013992;28;20196;-89
2021/12/04 03:59:59;;;;;;;14.95;9.18;;;3.30;99.90;;;;;;5013819;28;20266;-89
2021/12/04 04:02:27;;;;;;;9.38;8.27;;;3.30;99.90;;;;;;5013799;28;20208;-88
2021/12/04 04:04:54;;;;;;;12.38;9.00;;;3.40;99.90;;;;;;5014536;28;20223;-88
2021/12/04 04:07:21;;;;;;;9.50;8.20;;;3.40;99.90;;;;;;5014112;28;20223;-88
2021/12/04 04:09:47;;;;;;;11.27;9.00;;;3.40;99.90;;;;;;5014276;28;20266;-88
2021/12/04 04:12:14;;;;;;;11.52;8.63;;;3.40;99.90;;;;;;5014183;28;20183;-89
2021/12/04 04:14:41;;;;;;;9.80;8.32;;;3.50;99.90;;;;;;5014021;28;20210;-89
2021/12/04 04:17:07;;;;;;;12.77;9.30;;;3.40;99.90;;;;;;5013469;28;20191;-91
2021/12/04 04:19:35;;;;;;;13.02;8.95;;;3.50;99.90;;;;;;5013990;28;20188;-91
2021/12/04 04:22:02;;;;;;;14.45;8.45;;;3.40;99.90;;;;;;5013878;28;20649;-92
2021/12/04 04:24:31;;;;;;;9.90;8.13;;;3.50;99.90;;;;;;5013797;28;20249;-92
2021/12/04 04:26:58;;;;;;;16.13;9.75;;;3.50;99.90;;;;;;5013720;28;20196;-91
2021/12/04 04:29:25;;;;;;;12.80;9.38;;;3.50;99.90;;;;;;5013521;28;20192;-92
2021/12/04 04:31:54;;;;;;;13.00;8.93;;;3.50;99.90;;;;;;5013764;28;20618;-89
2021/12/04 04:34:24;;;;;;;10.45;8.10;;;3.40;99.90;;;;;;5013425;28;20547;-89
2021/12/04 04:37:08;;;;;;;8.73;7.82;;;3.40;99.90;;;;;;5013000;28;20223;-89
2021/12/04 04:40:08;;;;;;;12.90;8.90;;;3.40;99.90;;;;;;5012926;28;20187;-89
2021/12/04 04:59:10;;;;;;;8.25;7.43;;;3.50;99.90;;;;;;5012958;28;20210;-88
2021/12/04 05:02:00;;;;;;;10.15;7.75;;;3.50;99.90;;;;;;5012296;28;20194;-89
2021/12/04 05:12:48;;;;;;;9.88;8.40;;;3.50;99.90;;;;;;5012746;28;20197;-89
2021/12/04 05:15:20;;;;;;;9.15;8.25;;;3.50;99.90;;;;;;5012644;28;20187;-89
2021/12/04 05:18:05;;;;;;;9.00;7.88;;;3.50;99.90;;;;;;5012741;28;20188;-89
2021/12/04 05:20:34;;;;;;;12.45;10.05;;;3.60;99.90;;;;;;5012732;28;20190;-89
2021/12/04 05:23:01;;;;;;;17.55;13.27;;;3.50;99.90;;;;;;5012592;28;20218;-89
2021/12/04 05:25:30;;;;;;;25.02;15.93;;;3.50;99.90;;;;;;5012546;28;20227;-90
2021/12/04 05:27:56;;;;;;;27.65;19.08;;;3.50;99.90;;;;;;5012275;28;20190;-91
2021/12/04 05:30:23;;;;;;;29.08;19.52;;;3.50;99.90;;;;;;5012958;28;20195;-91
2021/12/04 05:32:50;;;;;;;23.30;18.17;;;3.40;99.90;;;;;;5012786;28;20290;-92
2021/12/04 05:35:17;;;;;;;20.05;14.43;;;3.60;99.90;;;;;;5013057;28;20281;-91
2021/12/04 05:37:43;;;;;;;11.27;10.07;;;3.40;99.90;;;;;;5012225;28;20625;-89
2021/12/04 05:40:12;;;;;;;10.32;8.68;;;3.40;99.90;;;;;;5012449;28;20270;-89
2021/12/04 05:42:41;;;;;;;8.05;7.13;;;3.40;99.90;;;;;;5012681;28;20293;-89
2021/12/04 05:45:15;;;;;;;8.82;7.45;;;3.40;99.90;;;;;;5012637;28;20191;-90
2021/12/04 05:47:47;;;;;;;8.80;7.70;;;3.40;99.90;;;;;;5012263;28;20638;-90
2021/12/04 05:50:24;;;;;;;9.77;6.90;;;3.40;99.90;;;;;;5012669;28;20594;-90
2021/12/04 05:53:03;;;;;;;8.60;6.97;;;3.40;99.90;;;;;;5012312;28;20202;-91
2021/12/04 05:55:40;;;;;;;7.03;6.43;;;3.40;99.90;;;;;;5012584;28;20245;-91
2021/12/04 05:58:11;;;;;;;8.57;7.07;;;3.50;99.90;;;;;;5012476;28;20187;-91
2021/12/04 06:00:38;;;;;;;7.75;6.95;;;3.40;99.90;;;;;;5013053;28;20286;-92
2021/12/04 06:03:04;;;;;;;24.85;17.65;;;3.40;99.90;;;;;;5016405;28;20223;-92
2021/12/04 06:05:31;;;;;;;15.35;12.25;;;3.50;99.90;;;;;;5016283;28;20210;-91
2021/12/04 06:07:57;;;;;;;7.57;6.80;;;3.40;99.90;;;;;;5016112;28;20211;-90
2021/12/04 06:10:24;;;;;;;10.80;6.82;;;3.40;99.90;;;;;;5016142;28;20187;-89
2021/12/04 06:12:51;;;;;;;9.93;7.45;;;3.40;99.90;;;;;;5015773;28;20195;-89
2021/12/04 06:15:18;;;;;;;8.80;7.05;;;3.50;99.90;;;;;;5015948;28;20282;-89
2021/12/04 06:17:45;;;;;;;7.70;6.95;;;3.50;99.90;;;;;;5015396;28;20227;-89
2021/12/04 06:22:56;;;;;;;7.55;6.65;;;3.40;99.90;;;;;;5015884;28;20221;-90
2021/12/04 06:25:27;;;;;;;7.50;6.82;;;3.40;99.90;;;;;;5015838;28;20223;-90
2021/12/04 06:27:54;;;;;;;8.02;6.55;;;3.40;99.90;;;;;;5015428;28;20188;-90
2021/12/04 06:30:24;;;;;;;10.40;6.75;;;3.40;99.90;;;;;;5015371;28;20191;-90
2021/12/04 06:32:52;;;;;;;10.00;8.00;;;3.50;99.90;;;;;;5015539;28;20278;-90
2021/12/04 06:35:21;;;;;;;7.85;7.05;;;3.40;99.90;;;;;;5015556;28;20278;-90
2021/12/04 06:37:48;;;;;;;8.40;6.93;;;3.50;99.90;;;;;;5015147;28;20595;-91
2021/12/04 06:40:17;;;;;;;7.13;6.20;;;3.50;99.90;;;;;;5015795;28;20245;-91
2021/12/04 06:42:45;;;;;;;8.98;6.70;;;3.50;99.90;;;;;;5015515;28;20207;-90
2021/12/04 06:45:12;;;;;;;7.65;6.63;;;3.50;99.90;;;;;;5015369;28;20187;-91
2021/12/04 06:47:46;;;;;;;7.90;7.10;;;3.50;99.90;;;;;;5015320;28;20670;-91
2021/12/04 06:50:18;;;;;;;7.75;6.97;;;3.50;99.90;;;;;;5015578;28;20198;-91
2021/12/04 06:52:47;;;;;;;7.50;6.82;;;3.50;99.90;;;;;;5015349;28;20199;-90
2021/12/04 06:55:15;;;;;;;8.57;6.65;;;3.50;99.90;;;;;;5014986;28;20198;-88
2021/12/04 06:57:43;;;;;;;7.95;6.50;;;3.50;99.90;;;;;;5014597;28;20578;-89
2021/12/04 07:00:11;;;;;;;7.57;6.25;;;3.50;99.90;;;;;;5015143;28;20242;-89
2021/12/04 07:02:38;;;;;;;7.57;6.63;;;3.60;99.90;;;;;;5014916;28;20211;-90
2021/12/04 07:05:07;;;;;;;9.18;6.95;;;3.60;99.90;;;;;;5015020;28;20184;-91
2021/12/04 07:07:33;;;;;;;9.75;6.93;;;3.60;99.90;;;;;;5014893;28;20188;-91
2021/12/04 07:10:00;;;;;;;10.00;7.97;;;3.60;99.90;;;;;;5014832;28;20668;-91
2021/12/04 07:12:26;;;;;;;7.22;6.53;;;3.60;99.90;;;;;;5014684;28;20643;-92
2021/12/04 07:14:53;;;;;;;10.13;7.28;;;3.60;99.90;;;;;;5014969;28;20322;-91
2021/12/04 07:17:20;;;;;;;9.82;7.25;;;3.60;99.90;;;;;;5014908;28;20286;-91
2021/12/04 07:19:46;;;;;;;7.63;6.93;;;3.70;99.90;;;;;;5014676;28;20748;-91
2021/12/04 07:22:14;;;;;;;7.95;6.85;;;3.60;99.90;;;;;;5014609;28;20218;-92
2021/12/04 07:24:40;;;;;;;7.63;6.70;;;3.60;99.90;;;;;;5014595;28;20713;-91
2021/12/04 07:27:07;;;;;;;8.73;6.95;;;3.70;99.90;;;;;;5014508;28;20222;-90
2021/12/04 07:29:34;;;;;;;9.50;7.38;;;4.10;99.90;;;;;;5014548;28;20199;-90
2021/12/04 07:32:00;;;;;;;7.07;6.38;;;3.80;99.90;;;;;;5014645;28;20231;-91
2021/12/04 07:34:27;;;;;;;7.22;6.38;;;3.80;99.90;;;;;;5014670;28;20192;-91
2021/12/04 07:36:53;;;;;;;6.57;6.03;;;3.80;99.90;;;;;;5014236;28;20302;-91
2021/12/04 07:39:21;;;;;;;7.05;6.35;;;3.80;99.90;;;;;;5014080;28;20219;-89
2021/12/04 07:41:48;;;;;;;7.35;6.10;;;3.80;99.90;;;;;;5014063;28;20274;-88
2021/12/04 07:44:14;;;;;;;7.22;6.40;;;3.80;99.90;;;;;;5013881;28;20215;-89
2021/12/04 07:46:42;;;;;;;9.80;6.78;;;3.80;99.90;;;;;;5014122;28;20207;-89
2021/12/04 07:49:09;;;;;;;11.73;5.97;;;3.90;99.90;;;;;;5014019;28;20191;-89
2021/12/04 07:51:35;;;;;;;6.45;5.85;;;3.90;99.90;;;;;;5013811;28;20211;-90
2021/12/04 07:54:02;;;;;;;6.75;5.68;;;3.90;99.90;;;;;;4997743;28;20215;-88
2021/12/04 07:56:30;;;;;;;6.18;5.57;;;3.90;99.90;;;;;;5013957;28;20268;-90
2021/12/04 07:58:57;;;;;;;8.27;5.97;;;4.20;99.90;;;;;;5013973;28;20215;-91
2021/12/04 08:01:24;;;;;;;6.82;5.72;;;4.00;99.90;;;;;;5014268;28;20198;-91
2021/12/04 08:03:50;;;;;;;8.18;5.82;;;4.00;99.90;;;;;;5014080;28;20215;-92
2021/12/04 08:06:17;;;;;;;6.18;5.57;;;4.10;99.90;;;;;;5014078;28;20198;-92
2021/12/04 08:08:44;;;;;;;7.10;5.63;;;4.10;99.90;;;;;;5014235;28;20192;-93
2021/12/04 08:11:10;;;;;;;7.15;6.03;;;4.10;99.90;;;;;;5014930;28;20192;-93
2021/12/04 08:13:38;;;;;;;7.68;5.57;;;4.10;99.90;;;;;;5014143;28;20250;-88
2021/12/04 08:16:06;;;;;;;7.25;6.28;;;4.10;99.90;;;;;;5012800;28;20634;-88
2021/12/04 08:18:32;;;;;;;7.15;5.63;;;4.10;99.90;;;;;;5012388;28;20271;-87
2021/12/04 08:20:59;;;;;;;8.02;6.03;;;4.10;99.90;;;;;;5012419;28;20195;-89
2021/12/04 08:23:26;;;;;;;6.55;5.50;;;4.20;99.90;;;;;;5011469;28;20215;-89
2021/12/04 08:25:52;;;;;;;5.70;5.20;;;4.20;99.90;;;;;;5013347;28;20274;-90
2021/12/04 08:28:19;;;;;;;6.35;5.78;;;4.20;99.90;;;;;;5013326;28;20258;-89
2021/12/04 08:30:47;;;;;;;6.30;5.70;;;4.30;99.90;;;;;;5009332;28;20215;-89
2021/12/04 08:33:14;;;;;;;8.20;6.45;;;4.40;99.90;;;;;;5002365;28;20215;-89
2021/12/04 08:35:41;;;;;;;6.75;6.00;;;4.50;99.90;;;;;;5003547;28;20298;-87
2021/12/04 08:38:08;;;;;;;6.07;5.45;;;4.40;99.90;;;;;;5005866;28;20227;-89
2021/12/04 08:40:35;;;;;;;7.53;6.40;;;4.50;99.90;;;;;;5003888;28;20190;-89
2021/12/04 08:43:02;;;;;;;8.43;6.63;;;4.50;99.90;;;;;;5011137;28;20238;-89
2021/12/04 08:45:30;;;;;;;6.45;5.85;;;4.50;99.90;;;;;;5011917;28;20183;-91
2021/12/04 08:47:58;;;;;;;6.60;5.90;;;4.50;99.90;;;;;;5010188;28;20271;-92
2021/12/04 08:50:26;;;;;;;7.80;6.40;;;4.50;99.90;;;;;;5006724;28;20222;-92
2021/12/04 08:52:54;;;;;;;6.90;5.72;;;4.40;99.90;;;;;;5005780;28;20245;-90
2021/12/04 08:55:22;;;;;;;9.38;5.45;;;4.50;99.90;;;;;;5003983;28;20199;-90
2021/12/04 08:57:49;;;;;;;6.75;6.03;;;4.50;99.90;;;;;;5003709;28;20231;-88
2021/12/04 09:00:18;;;;;;;7.28;6.57;;;4.50;99.90;;;;;;5003711;28;20215;-87
2021/12/04 09:02:46;;;;;;;9.35;6.40;;;4.50;99.90;;;;;;5007336;28;20192;-87
2021/12/04 09:05:15;;;;;;;7.57;6.22;;;4.80;99.90;;;;;;5010320;28;20183;-88
2021/12/04 09:07:42;;;;;;;7.90;6.47;;;4.60;99.90;;;;;;5003755;28;20666;-88
2021/12/04 09:10:11;;;;;;;6.70;6.00;;;4.50;99.90;;;;;;5002735;28;20234;-89
2021/12/04 09:12:39;;;;;;;6.50;5.65;;;4.50;99.90;;;;;;5001359;28;20644;-91
2021/12/04 09:15:10;;;;;;;7.88;6.35;;;4.50;99.90;;;;;;4998560;28;20559;-93
2021/12/04 09:17:36;;;;;;;7.57;6.65;;;4.60;99.90;;;;;;5009161;28;20701;-91
2021/12/04 09:20:04;;;;;;;7.53;6.53;;;4.50;99.90;;;;;;4996240;28;20226;-91
2021/12/04 09:22:35;;;;;;;7.25;6.20;;;4.50;99.90;;;;;;5012533;28;20275;-90
2021/12/04 09:25:02;;;;;;;8.10;6.88;;;4.50;99.90;;;;;;5012640;28;20594;-89
2021/12/04 09:27:40;;;;;;;8.50;6.63;;;4.50;99.90;;;;;;5012353;28;20241;-90
2021/12/04 09:30:20;;;;;;;7.82;6.10;;;4.50;99.90;;;;;;4997153;28;20191;-90
2021/12/04 09:35:53;;;;;;;9.38;6.38;;;4.40;99.90;;;;;;4993119;28;20202;-89
2021/12/04 10:00:42;;;;;;;7.95;6.82;;;4.40;99.90;;;;;;5016350;28;20203;-90
2021/12/04 10:03:33;;;;;;;9.18;7.25;;;4.40;99.90;;;;;;5016378;28;20311;-90
2021/12/04 10:06:27;;;;;;;9.65;7.30;;;4.40;99.90;;;;;;5016305;28;20230;-90
2021/12/04 10:12:11;;;;;;;8.43;7.53;;;4.40;99.90;;;;;;5015910;28;20254;-90
2021/12/04 10:20:23;;;;;;;8.45;7.32;;;4.40;99.90;;;;;;4980715;28;20180;-91
2021/12/04 10:23:06;;;;;;;7.82;7.13;;;4.50;99.90;;;;;;5016059;28;20283;-89
2021/12/04 10:33:50;;;;;;;8.88;7.50;;;4.70;99.90;;;;;;5015768;28;20291;-91
2021/12/04 10:36:28;;;;;;;8.70;7.80;;;4.70;99.90;;;;;;5016021;28;20654;-92
2021/12/04 10:38:55;;;;;;;7.80;7.10;;;4.70;99.90;;;;;;5024809;28;20223;-95
2021/12/04 10:41:31;;;;;;;9.15;7.70;;;4.70;99.90;;;;;;5028308;28;20195;-96
2021/12/04 10:44:15;;;;;;;8.40;7.55;;;4.70;99.90;;;;;;5021145;28;20277;-95
2021/12/04 10:46:53;;;;;;;9.57;8.20;;;4.70;99.90;;;;;;5024520;28;20191;-96
2021/12/04 10:49:41;;;;;;;8.70;7.80;;;4.70;99.90;;;;;;5026733;28;20187;-89
2021/12/04 10:52:32;;;;;;;9.52;8.63;;;4.80;99.90;;;;;;5015363;28;20191;-89
2021/12/04 10:55:10;;;;;;;9.20;8.23;;;4.80;99.90;;;;;;5015489;28;20183;-85
2021/12/04 10:58:01;;;;;;;10.52;9.43;;;4.80;99.90;;;;;;5015110;28;20183;-86
2021/12/04 11:00:46;;;;;;;11.38;10.18;;;4.80;99.90;;;;;;5014669;28;20187;-91
2021/12/04 11:03:23;;;;;;;11.80;9.50;;;4.80;99.90;;;;;;5015233;28;20187;-85
2021/12/04 11:06:32;;;;;;;8.70;7.80;;;4.80;99.90;;;;;;5014909;28;20194;-83
2021/12/04 11:26:34;;;;;;;9.45;8.30;;;5.00;99.90;;;;;;5010941;28;20187;-83
2021/12/04 11:40:50;;;;;;;11.93;9.45;;;5.20;99.90;;;;;;5089390;27;20544;-82
2021/12/04 11:43:19;;;;;;;11.35;9.77;;;5.20;99.90;;;;;;5089396;28;20204;-81
2021/12/04 11:45:59;;;;;;;9.82;8.82;;;5.20;99.90;;;;;;5089207;28;20227;-81
2021/12/04 11:48:29;;;;;;;10.45;9.35;;;5.10;99.90;;;;;;5089471;28;20212;-81
2021/12/04 11:50:56;;;;;;;9.05;8.13;;;5.10;99.90;;;;;;5089262;28;20592;-81
2021/12/04 11:53:23;;;;;;;9.88;8.32;;;5.10;99.90;;;;;;5088991;28;20716;-83
2021/12/04 11:55:52;;;;;;;8.45;7.40;;;5.10;99.90;;;;;;5089170;28;20257;-85
2021/12/04 11:58:21;;;;;;;10.93;8.43;;;5.10;99.90;;;;;;5080214;28;20630;-83
2021/12/04 12:00:50;;;;;;;9.63;8.73;;;5.20;99.90;;;;;;5086147;28;20188;-84
2021/12/04 12:03:19;;;;;;;9.13;8.20;;;5.20;99.90;;;;;;5086202;28;20269;-84
2021/12/04 12:05:48;;;;;;;10.00;8.82;;;5.10;99.90;;;;;;5088654;28;20674;-84
2021/12/04 12:08:24;;;;;;;9.40;8.23;;;5.10;99.90;;;;;;5088989;28;20195;-85
2021/12/04 12:10:54;;;;;;;8.95;7.97;;;5.10;99.90;;;;;;5087774;28;20242;-86
2021/12/04 12:13:31;;;;;;;9.43;8.52;;;5.10;99.90;;;;;;5085240;28;20284;-85
2021/12/04 12:16:06;;;;;;;9.90;8.60;;;5.10;99.90;;;;;;5088710;28;20586;-88
2021/12/04 12:18:44;;;;;;;9.38;8.13;;;5.10;99.90;;;;;;5088488;28;20212;-85
2021/12/04 12:21:14;;;;;;;9.27;8.35;;;5.20;99.90;;;;;;5088443;28;20181;-82
2021/12/04 12:26:41;;;;;;;8.88;7.97;;;5.20;99.90;;;;;;5083687;28;20191;-84
2021/12/04 12:32:24;;;;;;;9.70;7.85;;;5.20;99.90;;;;;;5084360;28;20200;-88
2021/12/04 12:37:37;;;;;;;8.95;8.05;;;5.30;99.90;;;;;;5088230;28;20195;-88
2021/12/04 12:40:08;;;;;;;8.20;7.28;;;5.30;99.90;;;;;;5087842;28;20251;-87
2021/12/04 12:42:39;;;;;;;8.80;7.93;;;5.30;99.90;;;;;;5089168;28;20270;-87
2021/12/04 12:45:18;;;;;;;9.18;7.75;;;5.20;99.90;;;;;;5091104;28;20219;-88
2021/12/04 12:47:54;;;;;;;8.38;7.57;;;5.30;99.90;;;;;;5091801;28;20658;-88
2021/12/04 12:50:30;;;;;;;9.43;8.43;;;5.30;99.90;;;;;;5087134;28;20189;-87
2021/12/04 12:53:05;;;;;;;10.40;8.60;;;5.30;99.90;;;;;;5069738;28;20181;-87
2021/12/04 12:55:34;;;;;;;11.57;9.02;;;5.20;99.90;;;;;;5073445;28;20203;-88
2021/12/04 12:58:19;;;;;;;11.75;9.10;;;5.20;99.90;;;;;;5078729;28;20185;-87
2021/12/04 13:12:01;;;;;;;10.68;8.70;;;5.10;99.90;;;;;;5077585;28;20220;-88
2021/12/04 13:14:31;;;;;;;11.07;8.90;;;5.10;99.90;;;;;;5076453;28;20185;-88
2021/12/04 13:17:03;;;;;;;11.52;8.90;;;5.10;99.90;;;;;;5068937;28;20220;-89
2021/12/04 13:19:31;;;;;;;11.60;9.13;;;5.10;99.90;;;;;;5081119;28;20576;-89
2021/12/04 13:22:03;;;;;;;10.63;8.95;;;5.00;99.90;;;;;;5079055;28;20244;-90
2021/12/04 13:24:38;;;;;;;11.88;9.48;;;5.00;99.90;;;;;;5079242;28;20260;-89
2021/12/04 13:29:39;;;;;;;12.57;11.15;;;4.90;99.90;;;;;;5078566;28;20273;-89
2021/12/04 13:32:07;;;;;;;16.58;10.90;;;4.90;99.90;;;;;;5062435;28;20220;-89
2021/12/04 13:34:35;;;;;;;13.98;11.32;;;4.90;99.90;;;;;;5078874;28;20272;-89
2021/12/04 13:37:02;;;;;;;16.23;11.55;;;4.90;99.90;;;;;;5081585;28;20597;-89
2021/12/04 13:39:29;;;;;;;12.48;10.70;;;4.90;99.90;;;;;;5075819;28;20225;-85
2021/12/04 13:41:56;;;;;;;13.23;10.45;;;4.90;99.90;;;;;;5076280;28;20288;-86
2021/12/04 13:44:25;;;;;;;16.30;12.02;;;4.90;99.90;;;;;;5077496;28;20246;-89
2021/12/04 13:46:59;;;;;;;15.40;11.75;;;4.80;99.90;;;;;;5075183;28;20591;-87
2021/12/04 13:49:31;;;;;;;13.35;11.98;;;4.80;99.90;;;;;;5077885;28;20225;-87
2021/12/04 13:52:02;;;;;;;14.52;12.07;;;4.80;99.90;;;;;;5061557;28;20189;-88
2021/12/04 13:54:32;;;;;;;15.15;12.07;;;4.70;99.90;;;;;;5077865;28;20213;-88
2021/12/04 13:56:59;;;;;;;14.50;11.98;;;4.70;99.90;;;;;;5076355;28;20182;-88
2021/12/04 13:59:28;;;;;;;18.88;13.05;;;4.70;99.90;;;;;;5075032;28;20311;-89
2021/12/04 14:01:56;;;;;;;16.05;13.48;;;4.70;99.90;;;;;;5072865;28;20220;-86
2021/12/04 14:04:26;;;;;;;16.08;12.65;;;4.60;99.90;;;;;;5076312;28;20607;-88
2021/12/04 14:06:54;;;;;;;17.10;12.73;;;4.50;99.90;;;;;;5076635;28;20709;-87
2021/12/04 14:09:23;;;;;;;16.60;13.10;;;4.50;99.90;;;;;;5075664;28;20232;-89
2021/12/04 14:11:52;;;;;;;16.55;13.68;;;4.50;99.90;;;;;;5073850;28;20189;-85
2021/12/04 14:14:22;;;;;;;18.02;14.18;;;4.50;99.90;;;;;;5073725;28;20189;-86
2021/12/04 14:16:52;;;;;;;17.33;13.30;;;4.50;99.90;;;;;;5074589;28;20203;-86
2021/12/04 14:19:23;;;;;;;17.80;13.80;;;4.50;99.90;;;;;;5075871;28;20254;-85
2021/12/04 14:21:55;;;;;;;17.50;13.38;;;4.40;99.90;;;;;;5075104;28;20193;-86
2021/12/04 14:24:27;;;;;;;19.75;14.48;;;4.40;99.90;;;;;;5075466;28;20189;-86
2021/12/04 14:26:54;;;;;;;16.98;13.10;;;4.40;99.90;;;;;;5074368;28;20181;-86
2021/12/04 14:29:20;;;;;;;16.73;14.30;;;4.40;99.90;;;;;;5071487;28;20236;-86
2021/12/04 14:31:48;;;;;;;21.27;13.50;;;4.30;99.90;;;;;;5072897;28;20190;-86
2021/12/04 14:34:22;;;;;;;17.77;14.95;;;4.30;99.90;;;;;;5072954;28;20192;-86
2021/12/04 14:36:59;;;;;;;17.13;13.60;;;4.30;99.90;;;;;;5073037;28;20190;-86
2021/12/04 14:39:26;;;;;;;18.42;14.25;;;4.30;99.90;;;;;;5072085;28;20308;-86
2021/12/04 14:41:53;;;;;;;15.93;12.40;;;4.30;99.90;;;;;;5072081;28;20619;-85
2021/12/04 14:44:19;;;;;;;14.05;11.63;;;4.30;99.90;;;;;;5072077;28;20193;-87
2021/12/04 14:46:46;;;;;;;15.10;11.77;;;4.20;99.90;;;;;;5071203;28;20217;-86
2021/12/04 14:49:13;;;;;;;15.00;12.68;;;4.20;99.90;;;;;;5070827;28;20217;-86
2021/12/04 14:51:42;;;;;;;16.90;12.90;;;4.20;99.90;;;;;;5070686;28;20185;-86
2021/12/04 14:54:10;;;;;;;16.63;12.90;;;4.20;99.90;;;;;;5070924;28;20189;-84
2021/12/04 14:56:36;;;;;;;16.50;13.52;;;4.20;99.90;;;;;;5070871;28;20205;-85
2021/12/04 14:59:14;;;;;;;17.83;13.13;;;4.20;99.90;;;;;;5071017;28;20272;-85
2021/12/04 15:01:40;;;;;;;14.48;12.90;;;4.20;99.90;;;;;;5072037;28;20272;-85
2021/12/04 15:04:07;;;;;;;15.45;12.90;;;4.10;99.90;;;;;;5071938;28;20268;-85
2021/12/04 15:06:36;;;;;;;15.13;12.38;;;4.10;99.90;;;;;;5072265;28;20220;-86
2021/12/04 15:09:09;;;;;;;17.55;13.02;;;4.10;99.90;;;;;;5072170;28;20185;-86
2021/12/04 15:11:41;;;;;;;19.23;14.40;;;4.10;99.90;;;;;;5072459;28;20544;-85
2021/12/04 15:14:11;;;;;;;19.05;14.63;;;4.10;99.90;;;;;;5065959;28;20217;-86
2021/12/04 15:16:45;;;;;;;17.48;14.10;;;4.00;99.90;;;;;;5072641;28;20189;-86
2021/12/04 15:19:17;;;;;;;18.67;13.68;;;4.00;99.90;;;;;;5072014;28;20334;-85
2021/12/04 15:21:49;;;;;;;17.00;13.60;;;4.00;99.90;;;;;;5071794;28;20197;-85